sensor_id;sensor_type;location;lat;lon;timestamp;P1;durP1;ratioP1;P2;durP2;ratioP2
4597;SDS011;62772;48.646;8.906;2024-01-10T00:02:13;27.67;;;11.30;;
4597;SDS011;62772;48.646;8.906;2024-01-10T00:07:14;23.90;;;11.63;;
4597;SDS011;62772;48.646;8.906;2024-01-10T00:12:14;30.23;;;11.50;;
4597;SDS011;62772;48.646;8.906;2024-01-10T00:17:15;21.40;;;10.60;;
4597;SDS011;62772;48.646;8.906;2024-01-10T00:22:15;27.13;;;10.90;;
4597;SDS011;62772;48.646;8.906;2024-01-10T00:27:16;22.60;;;10.57;;
4597;SDS011;62772;48.646;8.906;2024-01-10T00:32:16;28.37;;;12.47;;
4597;SDS011;62772;48.646;8.906;2024-01-10T00:37:16;30.30;;;11.90;;
4597;SDS011;62772;48.646;8.906;2024-01-10T00:42:17;26.47;;;12.40;;
4597;SDS011;62772;48.646;8.906;2024-01-10T00:47:18;28.70;;;11.43;;
4597;SDS011;62772;48.646;8.906;2024-01-10T00:52:18;25.10;;;11.67;;
4597;SDS011;62772;48.646;8.906;2024-01-10T00:57:19;36.23;;;13.07;;
4597;SDS011;62772;48.646;8.906;2024-01-10T01:02:19;32.03;;;12.73;;
4597;SDS011;62772;48.646;8.906;2024-01-10T01:07:20;28.07;;;11.87;;
4597;SDS011;62772;48.646;8.906;2024-01-10T01:12:20;33.30;;;14.40;;
4597;SDS011;62772;48.646;8.906;2024-01-10T01:17:21;36.83;;;13.97;;
4597;SDS011;62772;48.646;8.906;2024-01-10T01:22:22;31.87;;;14.47;;
4597;SDS011;62772;48.646;8.906;2024-01-10T01:27:22;33.50;;;16.17;;
4597;SDS011;62772;48.646;8.906;2024-01-10T01:32:23;39.97;;;16.63;;
4597;SDS011;62772;48.646;8.906;2024-01-10T01:37:24;37.67;;;16.40;;
4597;SDS011;62772;48.646;8.906;2024-01-10T01:42:24;36.33;;;16.50;;
4597;SDS011;62772;48.646;8.906;2024-01-10T01:47:26;49.43;;;16.40;;
4597;SDS011;62772;48.646;8.906;2024-01-10T01:52:27;35.97;;;16.47;;
4597;SDS011;62772;48.646;8.906;2024-01-10T01:57:30;34.37;;;16.13;;
4597;SDS011;62772;48.646;8.906;2024-01-10T02:02:31;48.83;;;16.43;;
4597;SDS011;62772;48.646;8.906;2024-01-10T02:07:32;30.37;;;15.67;;
4597;SDS011;62772;48.646;8.906;2024-01-10T02:12:32;41.70;;;18.00;;
4597;SDS011;62772;48.646;8.906;2024-01-10T02:17:33;35.83;;;15.77;;
4597;SDS011;62772;48.646;8.906;2024-01-10T02:22:33;42.47;;;16.50;;
4597;SDS011;62772;48.646;8.906;2024-01-10T02:27:35;42.47;;;16.57;;
4597;SDS011;62772;48.646;8.906;2024-01-10T02:32:37;42.40;;;18.80;;
4597;SDS011;62772;48.646;8.906;2024-01-10T02:37:37;33.73;;;16.07;;
4597;SDS011;62772;48.646;8.906;2024-01-10T02:42:38;42.60;;;18.50;;
4597;SDS011;62772;48.646;8.906;2024-01-10T02:47:39;38.40;;;17.13;;
4597;SDS011;62772;48.646;8.906;2024-01-10T02:52:39;37.70;;;16.80;;
4597;SDS011;62772;48.646;8.906;2024-01-10T02:57:40;33.60;;;15.30;;
4597;SDS011;62772;48.646;8.906;2024-01-10T03:02:40;35.07;;;15.23;;
4597;SDS011;62772;48.646;8.906;2024-01-10T03:07:41;35.17;;;16.50;;
4597;SDS011;62772;48.646;8.906;2024-01-10T03:12:41;36.57;;;15.10;;
4597;SDS011;62772;48.646;8.906;2024-01-10T03:17:42;30.50;;;15.10;;
4597;SDS011;62772;48.646;8.906;2024-01-10T03:22:42;33.20;;;15.40;;
4597;SDS011;62772;48.646;8.906;2024-01-10T03:27:43;29.03;;;13.03;;
4597;SDS011;62772;48.646;8.906;2024-01-10T03:32:43;33.10;;;13.50;;
4597;SDS011;62772;48.646;8.906;2024-01-10T03:37:44;30.20;;;14.57;;
4597;SDS011;62772;48.646;8.906;2024-01-10T03:42:44;27.83;;;13.17;;
4597;SDS011;62772;48.646;8.906;2024-01-10T03:47:45;31.47;;;14.47;;
4597;SDS011;62772;48.646;8.906;2024-01-10T03:52:49;29.33;;;13.60;;
4597;SDS011;62772;48.646;8.906;2024-01-10T03:57:50;27.93;;;13.37;;
4597;SDS011;62772;48.646;8.906;2024-01-10T04:02:50;31.00;;;13.77;;
4597;SDS011;62772;48.646;8.906;2024-01-10T04:07:51;25.83;;;12.50;;
4597;SDS011;62772;48.646;8.906;2024-01-10T04:12:52;33.57;;;15.77;;
4597;SDS011;62772;48.646;8.906;2024-01-10T04:17:52;29.13;;;13.60;;
4597;SDS011;62772;48.646;8.906;2024-01-10T04:22:53;31.30;;;13.87;;
4597;SDS011;62772;48.646;8.906;2024-01-10T04:27:54;32.53;;;14.37;;
4597;SDS011;62772;48.646;8.906;2024-01-10T04:32:56;33.37;;;14.33;;
4597;SDS011;62772;48.646;8.906;2024-01-10T04:37:56;30.37;;;13.93;;
4597;SDS011;62772;48.646;8.906;2024-01-10T04:42:56;34.50;;;14.67;;
4597;SDS011;62772;48.646;8.906;2024-01-10T04:47:57;33.20;;;14.63;;
4597;SDS011;62772;48.646;8.906;2024-01-10T04:52:57;33.47;;;14.57;;
4597;SDS011;62772;48.646;8.906;2024-01-10T04:57:58;29.80;;;14.37;;
4597;SDS011;62772;48.646;8.906;2024-01-10T05:02:59;32.70;;;15.00;;
4597;SDS011;62772;48.646;8.906;2024-01-10T05:08:00;34.33;;;15.47;;
4597;SDS011;62772;48.646;8.906;2024-01-10T05:13:01;31.93;;;14.47;;
4597;SDS011;62772;48.646;8.906;2024-01-10T05:18:02;33.40;;;14.70;;
4597;SDS011;62772;48.646;8.906;2024-01-10T05:23:03;43.23;;;15.40;;
4597;SDS011;62772;48.646;8.906;2024-01-10T05:28:04;34.60;;;15.50;;
4597;SDS011;62772;48.646;8.906;2024-01-10T05:33:04;34.37;;;15.53;;
4597;SDS011;62772;48.646;8.906;2024-01-10T05:38:05;35.20;;;15.70;;
4597;SDS011;62772;48.646;8.906;2024-01-10T05:43:06;39.00;;;15.90;;
4597;SDS011;62772;48.646;8.906;2024-01-10T05:48:07;37.30;;;17.27;;
4597;SDS011;62772;48.646;8.906;2024-01-10T05:53:07;34.80;;;16.40;;
4597;SDS011;62772;48.646;8.906;2024-01-10T05:58:09;31.97;;;15.23;;
4597;SDS011;62772;48.646;8.906;2024-01-10T06:03:10;32.43;;;16.20;;
4597;SDS011;62772;48.646;8.906;2024-01-10T06:08:11;33.63;;;15.40;;
4597;SDS011;62772;48.646;8.906;2024-01-10T06:13:11;31.33;;;15.50;;
4597;SDS011;62772;48.646;8.906;2024-01-10T06:18:12;32.73;;;14.83;;
4597;SDS011;62772;48.646;8.906;2024-01-10T06:23:12;31.97;;;14.80;;
4597;SDS011;62772;48.646;8.906;2024-01-10T06:28:12;32.60;;;14.83;;
4597;SDS011;62772;48.646;8.906;2024-01-10T06:33:16;33.10;;;14.80;;
4597;SDS011;62772;48.646;8.906;2024-01-10T06:38:16;33.83;;;14.97;;
4597;SDS011;62772;48.646;8.906;2024-01-10T06:43:17;33.13;;;15.97;;
4597;SDS011;62772;48.646;8.906;2024-01-10T06:48:17;36.00;;;16.10;;
4597;SDS011;62772;48.646;8.906;2024-01-10T06:53:19;40.93;;;19.70;;
4597;SDS011;62772;48.646;8.906;2024-01-10T06:58:20;34.70;;;17.23;;
4597;SDS011;62772;48.646;8.906;2024-01-10T07:03:20;39.60;;;17.97;;
4597;SDS011;62772;48.646;8.906;2024-01-10T07:08:20;31.53;;;14.70;;
4597;SDS011;62772;48.646;8.906;2024-01-10T07:13:21;44.33;;;15.60;;
4597;SDS011;62772;48.646;8.906;2024-01-10T07:18:22;41.43;;;15.67;;
4597;SDS011;62772;48.646;8.906;2024-01-10T07:23:22;33.23;;;14.30;;
4597;SDS011;62772;48.646;8.906;2024-01-10T07:28:23;33.50;;;15.40;;
4597;SDS011;62772;48.646;8.906;2024-01-10T07:33:23;35.33;;;15.40;;
4597;SDS011;62772;48.646;8.906;2024-01-10T07:38:23;39.53;;;15.27;;
4597;SDS011;62772;48.646;8.906;2024-01-10T07:43:24;29.97;;;14.63;;
4597;SDS011;62772;48.646;8.906;2024-01-10T07:48:25;31.50;;;15.00;;
4597;SDS011;62772;48.646;8.906;2024-01-10T07:53:25;28.77;;;13.80;;
4597;SDS011;62772;48.646;8.906;2024-01-10T07:58:26;27.60;;;13.83;;
4597;SDS011;62772;48.646;8.906;2024-01-10T08:03:27;27.63;;;13.53;;
4597;SDS011;62772;48.646;8.906;2024-01-10T08:08:28;32.93;;;15.30;;
4597;SDS011;62772;48.646;8.906;2024-01-10T08:13:28;37.43;;;16.97;;
4597;SDS011;62772;48.646;8.906;2024-01-10T08:18:29;30.23;;;15.20;;
4597;SDS011;62772;48.646;8.906;2024-01-10T08:23:30;35.97;;;15.30;;
4597;SDS011;62772;48.646;8.906;2024-01-10T08:28:31;30.63;;;14.70;;
4597;SDS011;62772;48.646;8.906;2024-01-10T08:33:31;35.30;;;17.20;;
4597;SDS011;62772;48.646;8.906;2024-01-10T08:38:32;44.30;;;18.90;;
4597;SDS011;62772;48.646;8.906;2024-01-10T08:43:32;46.20;;;18.23;;
4597;SDS011;62772;48.646;8.906;2024-01-10T08:48:33;38.97;;;18.70;;
4597;SDS011;62772;48.646;8.906;2024-01-10T08:53:33;45.33;;;21.50;;
4597;SDS011;62772;48.646;8.906;2024-01-10T08:58:34;49.07;;;21.63;;
4597;SDS011;62772;48.646;8.906;2024-01-10T09:03:34;49.57;;;23.30;;
4597;SDS011;62772;48.646;8.906;2024-01-10T09:08:34;49.67;;;22.50;;
4597;SDS011;62772;48.646;8.906;2024-01-10T09:13:35;41.00;;;21.37;;
4597;SDS011;62772;48.646;8.906;2024-01-10T09:18:38;48.37;;;22.33;;
4597;SDS011;62772;48.646;8.906;2024-01-10T09:23:40;44.90;;;23.07;;
4597;SDS011;62772;48.646;8.906;2024-01-10T09:28:40;54.83;;;24.03;;
4597;SDS011;62772;48.646;8.906;2024-01-10T09:33:40;57.60;;;24.70;;
4597;SDS011;62772;48.646;8.906;2024-01-10T09:38:41;53.13;;;22.40;;
4597;SDS011;62772;48.646;8.906;2024-01-10T09:43:41;50.03;;;23.93;;
4597;SDS011;62772;48.646;8.906;2024-01-10T09:48:42;67.63;;;25.87;;
4597;SDS011;62772;48.646;8.906;2024-01-10T09:53:44;49.93;;;23.17;;
4597;SDS011;62772;48.646;8.906;2024-01-10T09:58:48;55.27;;;24.23;;
4597;SDS011;62772;48.646;8.906;2024-01-10T10:03:50;52.33;;;24.00;;
4597;SDS011;62772;48.646;8.906;2024-01-10T10:08:51;57.40;;;25.60;;
4597;SDS011;62772;48.646;8.906;2024-01-10T10:13:51;55.00;;;23.43;;
4597;SDS011;62772;48.646;8.906;2024-01-10T10:18:52;54.80;;;21.37;;
4597;SDS011;62772;48.646;8.906;2024-01-10T10:23:58;52.97;;;24.13;;
4597;SDS011;62772;48.646;8.906;2024-01-10T10:29:00;46.83;;;22.97;;
4597;SDS011;62772;48.646;8.906;2024-01-10T10:34:00;53.00;;;23.47;;
4597;SDS011;62772;48.646;8.906;2024-01-10T10:39:02;52.67;;;24.80;;
4597;SDS011;62772;48.646;8.906;2024-01-10T10:44:03;63.60;;;26.00;;
4597;SDS011;62772;48.646;8.906;2024-01-10T10:49:09;56.60;;;25.60;;
4597;SDS011;62772;48.646;8.906;2024-01-10T10:54:13;53.97;;;24.20;;
4597;SDS011;62772;48.646;8.906;2024-01-10T10:59:15;54.93;;;26.07;;
4597;SDS011;62772;48.646;8.906;2024-01-10T11:04:16;48.70;;;23.07;;
4597;SDS011;62772;48.646;8.906;2024-01-10T11:09:17;46.63;;;22.33;;
4597;SDS011;62772;48.646;8.906;2024-01-10T11:20:05;43.13;;;22.67;;
4597;SDS011;62772;48.646;8.906;2024-01-10T11:25:37;57.63;;;25.30;;
4597;SDS011;62772;48.646;8.906;2024-01-10T11:30:37;50.63;;;24.70;;
4597;SDS011;62772;48.646;8.906;2024-01-10T11:41:11;56.03;;;24.53;;
4597;SDS011;62772;48.646;8.906;2024-01-10T11:46:13;64.13;;;27.47;;
4597;SDS011;62772;48.646;8.906;2024-01-10T11:51:13;58.97;;;28.10;;
4597;SDS011;62772;48.646;8.906;2024-01-10T11:56:15;54.87;;;27.40;;
4597;SDS011;62772;48.646;8.906;2024-01-10T12:01:16;67.13;;;29.33;;
4597;SDS011;62772;48.646;8.906;2024-01-10T12:06:17;53.87;;;26.70;;
4597;SDS011;62772;48.646;8.906;2024-01-10T12:11:18;54.83;;;28.07;;
4597;SDS011;62772;48.646;8.906;2024-01-10T12:16:18;54.57;;;26.17;;
4597;SDS011;62772;48.646;8.906;2024-01-10T12:21:19;52.77;;;26.43;;
4597;SDS011;62772;48.646;8.906;2024-01-10T12:26:19;62.33;;;29.33;;
4597;SDS011;62772;48.646;8.906;2024-01-10T12:31:20;57.63;;;28.90;;
4597;SDS011;62772;48.646;8.906;2024-01-10T12:36:22;54.20;;;27.73;;
4597;SDS011;62772;48.646;8.906;2024-01-10T12:41:23;61.80;;;29.17;;
4597;SDS011;62772;48.646;8.906;2024-01-10T12:46:24;68.50;;;29.33;;
4597;SDS011;62772;48.646;8.906;2024-01-10T12:51:24;58.57;;;28.07;;
4597;SDS011;62772;48.646;8.906;2024-01-10T12:56:25;69.40;;;28.17;;
4597;SDS011;62772;48.646;8.906;2024-01-10T13:01:27;56.07;;;26.97;;
4597;SDS011;62772;48.646;8.906;2024-01-10T13:06:27;61.17;;;28.33;;
4597;SDS011;62772;48.646;8.906;2024-01-10T13:11:28;58.33;;;29.13;;
4597;SDS011;62772;48.646;8.906;2024-01-10T13:16:29;60.17;;;28.10;;
4597;SDS011;62772;48.646;8.906;2024-01-10T13:21:30;63.03;;;28.67;;
4597;SDS011;62772;48.646;8.906;2024-01-10T13:26:31;59.27;;;28.03;;
4597;SDS011;62772;48.646;8.906;2024-01-10T13:31:32;52.13;;;26.20;;
4597;SDS011;62772;48.646;8.906;2024-01-10T13:36:32;55.77;;;27.43;;
4597;SDS011;62772;48.646;8.906;2024-01-10T13:41:33;57.87;;;26.27;;
4597;SDS011;62772;48.646;8.906;2024-01-10T13:46:33;55.20;;;26.03;;
4597;SDS011;62772;48.646;8.906;2024-01-10T13:51:35;55.17;;;26.70;;
4597;SDS011;62772;48.646;8.906;2024-01-10T13:56:36;56.30;;;26.97;;
4597;SDS011;62772;48.646;8.906;2024-01-10T14:01:39;53.00;;;25.03;;
4597;SDS011;62772;48.646;8.906;2024-01-10T14:06:40;50.70;;;25.60;;
4597;SDS011;62772;48.646;8.906;2024-01-10T14:11:40;59.43;;;29.70;;
4597;SDS011;62772;48.646;8.906;2024-01-10T14:16:40;50.70;;;24.20;;
4597;SDS011;62772;48.646;8.906;2024-01-10T14:21:41;52.43;;;24.67;;
4597;SDS011;62772;48.646;8.906;2024-01-10T14:26:41;48.17;;;24.40;;
4597;SDS011;62772;48.646;8.906;2024-01-10T14:31:42;46.00;;;24.53;;
4597;SDS011;62772;48.646;8.906;2024-01-10T14:36:42;52.80;;;24.30;;
4597;SDS011;62772;48.646;8.906;2024-01-10T14:41:43;54.97;;;26.30;;
4597;SDS011;62772;48.646;8.906;2024-01-10T14:46:43;54.97;;;25.33;;
4597;SDS011;62772;48.646;8.906;2024-01-10T14:51:44;49.27;;;25.40;;
4597;SDS011;62772;48.646;8.906;2024-01-10T14:56:44;50.77;;;24.10;;
4597;SDS011;62772;48.646;8.906;2024-01-10T15:01:46;59.90;;;24.90;;
4597;SDS011;62772;48.646;8.906;2024-01-10T15:06:46;52.70;;;25.90;;
4597;SDS011;62772;48.646;8.906;2024-01-10T15:11:47;59.07;;;25.13;;
4597;SDS011;62772;48.646;8.906;2024-01-10T15:16:47;51.87;;;25.87;;
4597;SDS011;62772;48.646;8.906;2024-01-10T15:21:48;59.57;;;27.17;;
4597;SDS011;62772;48.646;8.906;2024-01-10T15:26:49;54.27;;;25.50;;
4597;SDS011;62772;48.646;8.906;2024-01-10T15:31:50;51.70;;;25.30;;
4597;SDS011;62772;48.646;8.906;2024-01-10T15:36:50;53.37;;;25.60;;
4597;SDS011;62772;48.646;8.906;2024-01-10T15:41:51;50.53;;;25.97;;
4597;SDS011;62772;48.646;8.906;2024-01-10T15:46:51;55.47;;;25.47;;
4597;SDS011;62772;48.646;8.906;2024-01-10T15:51:52;55.87;;;26.83;;
4597;SDS011;62772;48.646;8.906;2024-01-10T15:56:52;53.70;;;26.07;;
4597;SDS011;62772;48.646;8.906;2024-01-10T16:01:53;51.43;;;25.00;;
4597;SDS011;62772;48.646;8.906;2024-01-10T16:06:54;52.57;;;24.03;;
4597;SDS011;62772;48.646;8.906;2024-01-10T16:11:54;53.00;;;24.53;;
4597;SDS011;62772;48.646;8.906;2024-01-10T16:16:55;48.10;;;24.63;;
4597;SDS011;62772;48.646;8.906;2024-01-10T16:21:56;54.27;;;24.33;;
4597;SDS011;62772;48.646;8.906;2024-01-10T16:26:56;48.13;;;24.77;;
4597;SDS011;62772;48.646;8.906;2024-01-10T16:31:57;46.10;;;23.40;;
4597;SDS011;62772;48.646;8.906;2024-01-10T16:36:57;52.97;;;24.47;;
4597;SDS011;62772;48.646;8.906;2024-01-10T16:41:58;49.30;;;25.70;;
4597;SDS011;62772;48.646;8.906;2024-01-10T16:46:58;50.20;;;24.70;;
4597;SDS011;62772;48.646;8.906;2024-01-10T16:51:59;51.57;;;26.57;;
4597;SDS011;62772;48.646;8.906;2024-01-10T16:56:59;49.20;;;24.93;;
4597;SDS011;62772;48.646;8.906;2024-01-10T17:02:00;53.67;;;25.73;;
4597;SDS011;62772;48.646;8.906;2024-01-10T17:07:01;50.20;;;25.13;;
4597;SDS011;62772;48.646;8.906;2024-01-10T17:12:01;60.80;;;27.40;;
4597;SDS011;62772;48.646;8.906;2024-01-10T17:17:01;56.97;;;26.57;;
4597;SDS011;62772;48.646;8.906;2024-01-10T17:22:02;62.27;;;26.53;;
4597;SDS011;62772;48.646;8.906;2024-01-10T17:27:03;61.53;;;27.00;;
4597;SDS011;62772;48.646;8.906;2024-01-10T17:32:05;57.07;;;27.43;;
4597;SDS011;62772;48.646;8.906;2024-01-10T17:37:06;63.27;;;26.83;;
4597;SDS011;62772;48.646;8.906;2024-01-10T17:42:06;59.57;;;26.83;;
4597;SDS011;62772;48.646;8.906;2024-01-10T17:47:07;53.73;;;23.53;;
4597;SDS011;62772;48.646;8.906;2024-01-10T17:52:10;49.93;;;24.77;;
4597;SDS011;62772;48.646;8.906;2024-01-10T17:57:11;51.63;;;23.60;;
4597;SDS011;62772;48.646;8.906;2024-01-10T18:02:11;54.30;;;24.70;;
4597;SDS011;62772;48.646;8.906;2024-01-10T18:07:12;55.57;;;24.30;;
4597;SDS011;62772;48.646;8.906;2024-01-10T18:12:13;46.13;;;23.00;;
4597;SDS011;62772;48.646;8.906;2024-01-10T18:17:13;52.67;;;25.80;;
4597;SDS011;62772;48.646;8.906;2024-01-10T18:22:13;69.77;;;29.77;;
4597;SDS011;62772;48.646;8.906;2024-01-10T18:27:14;68.50;;;31.90;;
4597;SDS011;62772;48.646;8.906;2024-01-10T18:32:14;72.10;;;30.67;;
4597;SDS011;62772;48.646;8.906;2024-01-10T18:37:15;63.43;;;29.13;;
4597;SDS011;62772;48.646;8.906;2024-01-10T18:42:17;74.67;;;31.67;;
4597;SDS011;62772;48.646;8.906;2024-01-10T18:47:18;66.63;;;27.63;;
4597;SDS011;62772;48.646;8.906;2024-01-10T18:52:18;51.47;;;25.67;;
4597;SDS011;62772;48.646;8.906;2024-01-10T18:57:18;56.17;;;25.10;;
4597;SDS011;62772;48.646;8.906;2024-01-10T19:02:19;55.10;;;26.90;;
4597;SDS011;62772;48.646;8.906;2024-01-10T19:07:20;59.77;;;26.23;;
4597;SDS011;62772;48.646;8.906;2024-01-10T19:12:20;61.53;;;26.60;;
4597;SDS011;62772;48.646;8.906;2024-01-10T19:17:21;57.37;;;25.40;;
4597;SDS011;62772;48.646;8.906;2024-01-10T19:22:21;53.23;;;24.13;;
4597;SDS011;62772;48.646;8.906;2024-01-10T19:27:21;56.97;;;23.47;;
4597;SDS011;62772;48.646;8.906;2024-01-10T19:32:22;61.50;;;26.57;;
4597;SDS011;62772;48.646;8.906;2024-01-10T19:37:22;76.00;;;30.10;;
4597;SDS011;62772;48.646;8.906;2024-01-10T19:42:23;88.80;;;36.40;;
4597;SDS011;62772;48.646;8.906;2024-01-10T19:47:23;74.10;;;31.87;;
4597;SDS011;62772;48.646;8.906;2024-01-10T19:52:24;69.53;;;30.77;;
4597;SDS011;62772;48.646;8.906;2024-01-10T19:57:24;70.83;;;28.60;;
4597;SDS011;62772;48.646;8.906;2024-01-10T20:02:25;65.97;;;27.17;;
4597;SDS011;62772;48.646;8.906;2024-01-10T20:07:25;59.63;;;26.33;;
4597;SDS011;62772;48.646;8.906;2024-01-10T20:12:26;71.90;;;26.90;;
4597;SDS011;62772;48.646;8.906;2024-01-10T20:17:26;55.70;;;25.57;;
4597;SDS011;62772;48.646;8.906;2024-01-10T20:22:27;75.03;;;29.43;;
4597;SDS011;62772;48.646;8.906;2024-01-10T20:27:27;67.20;;;28.17;;
4597;SDS011;62772;48.646;8.906;2024-01-10T20:32:27;73.70;;;29.67;;
4597;SDS011;62772;48.646;8.906;2024-01-10T20:37:28;65.40;;;26.73;;
4597;SDS011;62772;48.646;8.906;2024-01-10T20:42:28;65.83;;;28.57;;
4597;SDS011;62772;48.646;8.906;2024-01-10T20:47:30;61.40;;;26.40;;
4597;SDS011;62772;48.646;8.906;2024-01-10T20:52:31;62.23;;;28.00;;
4597;SDS011;62772;48.646;8.906;2024-01-10T20:57:31;58.93;;;28.20;;
4597;SDS011;62772;48.646;8.906;2024-01-10T21:02:32;62.43;;;26.10;;
4597;SDS011;62772;48.646;8.906;2024-01-10T21:07:33;69.37;;;28.87;;
4597;SDS011;62772;48.646;8.906;2024-01-10T21:12:34;62.07;;;26.23;;
4597;SDS011;62772;48.646;8.906;2024-01-10T21:17:34;59.57;;;25.23;;
4597;SDS011;62772;48.646;8.906;2024-01-10T21:22:35;66.03;;;24.67;;
4597;SDS011;62772;48.646;8.906;2024-01-10T21:27:35;56.60;;;25.30;;
4597;SDS011;62772;48.646;8.906;2024-01-10T21:32:36;62.00;;;27.33;;
4597;SDS011;62772;48.646;8.906;2024-01-10T21:37:36;57.80;;;26.30;;
4597;SDS011;62772;48.646;8.906;2024-01-10T21:42:37;65.70;;;26.70;;
4597;SDS011;62772;48.646;8.906;2024-01-10T21:47:37;62.83;;;23.23;;
4597;SDS011;62772;48.646;8.906;2024-01-10T21:52:38;60.80;;;25.77;;
4597;SDS011;62772;48.646;8.906;2024-01-10T21:57:39;72.97;;;26.90;;
4597;SDS011;62772;48.646;8.906;2024-01-10T22:02:40;62.40;;;25.07;;
4597;SDS011;62772;48.646;8.906;2024-01-10T22:07:41;68.67;;;27.90;;
4597;SDS011;62772;48.646;8.906;2024-01-10T22:12:41;75.70;;;29.60;;
4597;SDS011;62772;48.646;8.906;2024-01-10T22:17:41;74.50;;;29.20;;
4597;SDS011;62772;48.646;8.906;2024-01-10T22:22:42;72.57;;;29.70;;
4597;SDS011;62772;48.646;8.906;2024-01-10T22:27:45;79.77;;;31.10;;
4597;SDS011;62772;48.646;8.906;2024-01-10T22:32:46;78.53;;;30.00;;
4597;SDS011;62772;48.646;8.906;2024-01-10T22:37:46;68.43;;;27.33;;
4597;SDS011;62772;48.646;8.906;2024-01-10T22:42:47;59.60;;;26.70;;
4597;SDS011;62772;48.646;8.906;2024-01-10T22:47:47;63.40;;;26.60;;
4597;SDS011;62772;48.646;8.906;2024-01-10T22:52:48;56.63;;;25.03;;
4597;SDS011;62772;48.646;8.906;2024-01-10T22:57:48;67.17;;;28.00;;
4597;SDS011;62772;48.646;8.906;2024-01-10T23:02:51;59.30;;;25.47;;
4597;SDS011;62772;48.646;8.906;2024-01-10T23:07:52;69.93;;;26.50;;
4597;SDS011;62772;48.646;8.906;2024-01-10T23:12:52;64.47;;;25.07;;
4597;SDS011;62772;48.646;8.906;2024-01-10T23:17:53;56.47;;;24.23;;
4597;SDS011;62772;48.646;8.906;2024-01-10T23:22:53;46.50;;;22.10;;
4597;SDS011;62772;48.646;8.906;2024-01-10T23:27:54;51.30;;;23.67;;
4597;SDS011;62772;48.646;8.906;2024-01-10T23:32:55;59.60;;;25.80;;
4597;SDS011;62772;48.646;8.906;2024-01-10T23:37:56;63.10;;;23.13;;
4597;SDS011;62772;48.646;8.906;2024-01-10T23:42:57;61.43;;;23.60;;
4597;SDS011;62772;48.646;8.906;2024-01-10T23:47:57;50.50;;;22.70;;
4597;SDS011;62772;48.646;8.906;2024-01-10T23:52:57;57.40;;;25.07;;
4597;SDS011;62772;48.646;8.906;2024-01-10T23:57:58;52.60;;;21.77;;
